Time;durP1;ratioP1;P1;durP2;ratioP2;P2;SDS_P1;SDS_P2;PMS_P1;PMS_P2;Temp;Humidity;BMP_temperature;BMP_pressure;BME280_temperature;BME280_humidity;BME280_pressure;Samples;Min_cycle;Max_cycle;Signal;HPM_P1;HPM_P2
2022/05/20 00:00:06;;;;;;;3.78;2.45;;;19.10;99.90;;;;;;5068579;28;20037;-78
2022/05/20 00:02:32;;;;;;;3.40;2.38;;;19.10;99.90;;;;;;5069075;28;20068;-80
2022/05/20 00:04:58;;;;;;;4.70;2.40;;;19.00;99.90;;;;;;5068845;28;20458;-82
2022/05/20 00:07:24;;;;;;;8.55;2.75;;;19.00;99.90;;;;;;5067944;28;20518;-81
2022/05/20 00:09:49;;;;;;;8.43;3.17;;;19.00;99.90;;;;;;5067644;28;20032;-79
2022/05/20 00:12:15;;;;;;;6.70;2.40;;;19.00;99.90;;;;;;5069465;28;20470;-80
2022/05/20 00:14:40;;;;;;;3.22;2.20;;;19.00;99.90;;;;;;5067584;28;20035;-78
2022/05/20 00:17:06;;;;;;;4.68;2.10;;;19.00;99.90;;;;;;5068878;28;20044;-79
2022/05/20 00:19:32;;;;;;;2.75;2.05;;;19.00;99.90;;;;;;5067703;28;20045;-81
2022/05/20 00:21:58;;;;;;;3.53;2.17;;;19.00;99.90;;;;;;5069836;28;20055;-81
2022/05/20 00:24:24;;;;;;;2.22;2.00;;;19.00;99.90;;;;;;5069540;28;20406;-79
2022/05/20 00:26:50;;;;;;;4.20;2.25;;;19.00;99.90;;;;;;5067101;28;20025;-81
2022/05/20 00:29:16;;;;;;;5.88;2.78;;;19.10;99.90;;;;;;5069430;28;20154;-82
2022/05/20 00:31:42;;;;;;;4.38;2.38;;;19.10;99.90;;;;;;5067973;28;20128;-79
2022/05/20 00:34:08;;;;;;;4.72;2.60;;;19.10;99.90;;;;;;5069308;28;20029;-80
2022/05/20 00:36:34;;;;;;;3.13;1.98;;;19.10;99.90;;;;;;5067942;28;20444;-80
2022/05/20 00:38:59;;;;;;;3.13;2.47;;;19.10;99.90;;;;;;5071307;28;20099;-83
2022/05/20 00:41:24;;;;;;;3.55;2.08;;;19.10;99.90;;;;;;5069280;28;20033;-78
2022/05/20 00:43:51;;;;;;;4.20;2.92;;;19.20;99.90;;;;;;5062137;28;20044;-80
2022/05/20 00:46:23;;;;;;;3.10;1.85;;;19.10;99.90;;;;;;5065363;28;20127;-81
2022/05/20 00:49:00;;;;;;;2.95;1.98;;;19.20;99.90;;;;;;5069164;28;20631;-78
2022/05/20 00:51:31;;;;;;;4.55;1.60;;;19.20;99.90;;;;;;5069129;28;20036;-81
2022/05/20 00:54:05;;;;;;;2.95;1.92;;;19.20;99.90;;;;;;5067964;28;20516;-78
2022/05/20 00:56:37;;;;;;;9.45;2.33;;;19.20;99.90;;;;;;5065678;28;20060;-80
2022/05/20 00:59:06;;;;;;;1.95;1.63;;;19.20;99.90;;;;;;5069160;28;20686;-78
2022/05/20 01:01:33;;;;;;;11.10;2.00;;;19.20;99.90;;;;;;5069177;28;20044;-80
2022/05/20 01:03:59;;;;;;;2.72;1.23;;;19.20;99.90;;;;;;5067956;28;20043;-81
2022/05/20 01:06:26;;;;;;;3.03;1.88;;;19.20;99.90;;;;;;5067701;28;20033;-82
2022/05/20 01:08:51;;;;;;;3.38;1.80;;;19.20;99.90;;;;;;5069294;28;20066;-79
2022/05/20 01:11:17;;;;;;;2.65;1.80;;;19.20;99.90;;;;;;5066876;28;20028;-81
2022/05/20 01:13:47;;;;;;;2.80;1.25;;;19.20;99.90;;;;;;5062731;28;20093;-82
2022/05/20 01:16:13;;;;;;;2.20;1.27;;;19.20;99.90;;;;;;5068966;28;20024;-80
2022/05/20 01:18:41;;;;;;;6.30;2.35;;;19.20;99.90;;;;;;5073153;28;20492;-82
2022/05/20 01:21:07;;;;;;;2.95;1.83;;;19.10;99.90;;;;;;5075108;28;20039;-79
2022/05/20 01:23:34;;;;;;;2.30;1.70;;;19.10;99.90;;;;;;5071792;28;20406;-78
2022/05/20 01:26:00;;;;;;;2.95;1.52;;;19.00;99.90;;;;;;5072565;28;20115;-81
2022/05/20 01:28:28;;;;;;;2.42;1.80;;;19.00;99.90;;;;;;5073094;28;20059;-79
2022/05/20 01:31:04;;;;;;;2.90;1.50;;;19.00;99.90;;;;;;5070889;28;20055;-80
2022/05/20 01:33:40;;;;;;;1.75;1.60;;;18.90;99.90;;;;;;5068558;28;20566;-82
2022/05/20 01:36:09;;;;;;;2.88;1.70;;;18.90;99.90;;;;;;5067451;28;20025;-79
2022/05/20 01:38:35;;;;;;;2.13;1.50;;;18.90;99.90;;;;;;5071602;28;20028;-79
2022/05/20 01:41:07;;;;;;;1.92;1.42;;;18.80;99.90;;;;;;5073074;28;20066;-81
2022/05/20 01:43:48;;;;;;;3.33;2.00;;;18.80;99.90;;;;;;5071690;28;20032;-80
2022/05/20 01:46:22;;;;;;;5.03;1.60;;;18.80;99.90;;;;;;5071578;28;20032;-82
2022/05/20 01:49:07;;;;;;;2.45;1.38;;;18.80;99.90;;;;;;5072169;28;20028;-81
2022/05/20 01:51:46;;;;;;;2.53;1.65;;;18.80;99.90;;;;;;5069475;28;20363;-81
2022/05/20 01:54:23;;;;;;;3.70;2.00;;;18.80;99.90;;;;;;5072744;28;20107;-80
2022/05/20 01:56:55;;;;;;;2.72;1.58;;;18.90;99.90;;;;;;5068966;28;20017;-81
2022/05/20 01:59:27;;;;;;;3.22;1.70;;;18.90;99.90;;;;;;5068720;28;20060;-81
2022/05/20 02:02:03;;;;;;;2.67;1.57;;;18.90;99.90;;;;;;5069935;28;20040;-80
2022/05/20 02:04:38;;;;;;;4.35;1.60;;;18.90;99.90;;;;;;5062737;28;20304;-80
2022/05/20 02:07:08;;;;;;;2.63;1.33;;;18.80;99.90;;;;;;5062077;28;20040;-80
2022/05/20 02:09:42;;;;;;;2.33;1.60;;;18.80;99.90;;;;;;5070354;28;20164;-83
2022/05/20 02:12:12;;;;;;;2.75;1.83;;;18.80;99.90;;;;;;5070608;28;20502;-81
2022/05/20 02:14:46;;;;;;;4.05;1.58;;;18.80;99.90;;;;;;5070949;28;20039;-81
2022/05/20 02:17:29;;;;;;;2.78;1.80;;;18.80;99.90;;;;;;5070935;28;20024;-79
2022/05/20 02:20:00;;;;;;;3.63;2.10;;;18.70;99.90;;;;;;5070895;28;20054;-81
2022/05/20 02:22:33;;;;;;;2.20;1.50;;;18.70;99.90;;;;;;5070579;28;20054;-83
2022/05/20 02:25:02;;;;;;;2.20;1.70;;;18.60;99.90;;;;;;5069944;28;20020;-81
2022/05/20 02:27:32;;;;;;;2.90;1.98;;;18.60;99.90;;;;;;5063480;28;20475;-78
2022/05/20 02:30:20;;;;;;;3.42;2.47;;;18.60;99.90;;;;;;5069580;28;20098;-79
2022/05/20 02:32:54;;;;;;;3.97;1.98;;;18.50;99.90;;;;;;5070396;28;20040;-83
2022/05/20 02:35:19;;;;;;;13.63;2.75;;;18.50;99.90;;;;;;5079357;28;20395;-83
2022/05/20 02:37:45;;;;;;;3.00;2.05;;;18.50;99.90;;;;;;5062185;28;20033;-81
2022/05/20 02:40:14;;;;;;;4.13;2.40;;;18.50;99.90;;;;;;5069558;28;20037;-81
2022/05/20 02:42:40;;;;;;;7.18;1.75;;;18.40;99.90;;;;;;5062429;28;20234;-82
2022/05/20 02:45:06;;;;;;;3.22;2.08;;;18.40;99.90;;;;;;5069706;28;20024;-81
2022/05/20 02:47:33;;;;;;;2.28;2.00;;;18.50;99.90;;;;;;5069922;28;20097;-80
2022/05/20 02:50:00;;;;;;;5.03;1.90;;;18.40;99.90;;;;;;5070132;28;20032;-82
2022/05/20 02:52:26;;;;;;;3.63;1.90;;;18.30;99.90;;;;;;5070027;28;20486;-80
2022/05/20 02:54:51;;;;;;;3.05;2.10;;;18.40;99.90;;;;;;5069946;28;20031;-80
2022/05/20 02:57:17;;;;;;;4.65;2.22;;;18.30;99.90;;;;;;5067984;28;20078;-81
2022/05/20 03:05:12;;;;;;;7.28;2.25;;;18.30;99.90;;;;;;5069320;28;20544;-79
2022/05/20 03:07:37;;;;;;;4.38;2.45;;;18.20;99.90;;;;;;5065259;28;20029;-82
2022/05/20 03:10:03;;;;;;;5.63;3.55;;;18.20;99.90;;;;;;5069817;28;20086;-78
2022/05/20 03:12:29;;;;;;;5.38;2.58;;;18.30;99.90;;;;;;5072473;28;20394;-84
2022/05/20 03:14:54;;;;;;;3.97;2.50;;;18.30;99.90;;;;;;5070667;28;20024;-79
2022/05/20 03:17:20;;;;;;;3.42;2.35;;;18.20;99.90;;;;;;5070470;28;20488;-83
2022/05/20 03:19:46;;;;;;;3.80;2.63;;;18.20;99.90;;;;;;5070206;28;20032;-80
2022/05/20 03:22:11;;;;;;;5.80;2.92;;;18.20;99.90;;;;;;5068148;28;20056;-82
2022/05/20 03:24:37;;;;;;;8.00;3.15;;;18.20;99.90;;;;;;5068974;28;20107;-80
2022/05/20 03:27:04;;;;;;;4.20;2.70;;;18.20;99.90;;;;;;5069472;28;20066;-80
2022/05/20 03:29:30;;;;;;;6.70;2.90;;;18.20;99.90;;;;;;5068790;28;20449;-82
2022/05/20 03:31:55;;;;;;;8.98;3.15;;;18.20;99.90;;;;;;5069520;28;20078;-82
2022/05/20 03:34:21;;;;;;;3.85;2.42;;;18.20;99.90;;;;;;5068966;28;20044;-81
2022/05/20 03:36:49;;;;;;;5.55;3.35;;;18.20;99.90;;;;;;5068923;28;20055;-83
2022/05/20 03:39:19;;;;;;;3.33;2.90;;;18.30;99.90;;;;;;5069650;28;20040;-80
2022/05/20 03:41:45;;;;;;;3.33;2.88;;;18.30;99.90;;;;;;5069418;28;20032;-81
2022/05/20 03:44:12;;;;;;;3.55;2.80;;;18.30;99.90;;;;;;5069010;28;20064;-82
2022/05/20 03:46:46;;;;;;;5.13;2.63;;;18.30;99.90;;;;;;5063841;28;20541;-80
2022/05/20 03:49:13;;;;;;;4.72;2.95;;;18.40;99.90;;;;;;5069273;28;20530;-79
2022/05/20 03:51:39;;;;;;;4.13;2.80;;;18.40;99.90;;;;;;5069880;28;20032;-82
2022/05/20 03:54:05;;;;;;;5.25;3.05;;;18.40;99.90;;;;;;5069562;28;20051;-79
2022/05/20 03:56:30;;;;;;;5.28;2.63;;;18.40;99.90;;;;;;5069379;28;20032;-81
2022/05/20 03:58:56;;;;;;;3.58;2.55;;;18.40;99.90;;;;;;5068780;28;20025;-82
2022/05/20 04:04:06;;;;;;;5.72;3.00;;;18.40;99.90;;;;;;5066206;28;20431;-80
2022/05/20 04:06:32;;;;;;;4.28;3.10;;;18.50;99.90;;;;;;5069188;28;20044;-83
2022/05/20 04:08:57;;;;;;;4.57;3.25;;;18.40;99.90;;;;;;5067656;28;20460;-80
2022/05/20 04:11:25;;;;;;;5.57;3.65;;;18.50;99.90;;;;;;5062970;28;20032;-82
2022/05/20 04:13:51;;;;;;;3.97;2.85;;;18.50;99.90;;;;;;5069933;28;20029;-79
2022/05/20 04:16:16;;;;;;;8.32;3.33;;;18.50;99.90;;;;;;5067372;28;20033;-80
2022/05/20 04:18:43;;;;;;;4.18;2.88;;;18.50;99.90;;;;;;5057404;28;20093;-82
2022/05/20 04:21:10;;;;;;;4.97;2.72;;;18.60;99.90;;;;;;5067592;28;20123;-79
2022/05/20 04:23:35;;;;;;;7.05;3.00;;;18.50;99.90;;;;;;5067510;28;20108;-81
2022/05/20 04:26:01;;;;;;;5.88;3.17;;;18.50;99.90;;;;;;5065701;28;20108;-81
2022/05/20 04:28:27;;;;;;;4.43;3.05;;;18.50;99.90;;;;;;5068872;28;20044;-80
2022/05/20 04:30:57;;;;;;;6.60;2.72;;;18.50;99.90;;;;;;5065007;28;20123;-81
2022/05/20 04:33:23;;;;;;;4.00;3.15;;;18.50;99.90;;;;;;5069507;28;20040;-84
2022/05/20 04:35:49;;;;;;;5.18;3.22;;;18.50;99.90;;;;;;5058562;28;20037;-80
2022/05/20 04:38:14;;;;;;;5.38;3.10;;;18.60;99.90;;;;;;5066956;28;20108;-82
2022/05/20 04:40:40;;;;;;;3.22;2.63;;;18.60;99.90;;;;;;5070068;28;20044;-83
2022/05/20 04:48:34;;;;;;;4.45;3.03;;;18.70;99.90;;;;;;5067962;28;20039;-82
2022/05/20 04:50:59;;;;;;;4.88;3.28;;;18.70;99.90;;;;;;5065452;28;20040;-82
2022/05/20 04:56:09;;;;;;;5.90;3.75;;;18.90;99.90;;;;;;5073307;28;20038;-83
2022/05/20 04:58:35;;;;;;;8.77;3.30;;;18.90;99.90;;;;;;5068784;28;20029;-84
2022/05/20 05:01:01;;;;;;;5.20;3.53;;;18.90;99.90;;;;;;5059959;28;20028;-84
2022/05/20 05:03:27;;;;;;;6.32;3.67;;;19.00;99.90;;;;;;5061007;28;20042;-84
2022/05/20 05:05:52;;;;;;;5.57;3.22;;;19.10;99.90;;;;;;5066987;28;20131;-81
2022/05/20 05:08:18;;;;;;;6.07;3.40;;;19.10;99.90;;;;;;5066039;28;20485;-81
2022/05/20 05:10:44;;;;;;;5.53;3.50;;;19.20;99.90;;;;;;5061171;28;20032;-80
2022/05/20 05:13:12;;;;;;;5.32;3.60;;;19.30;99.90;;;;;;5067010;28;20790;-82
2022/05/20 05:15:38;;;;;;;6.35;3.70;;;19.40;99.90;;;;;;5064192;28;20123;-83
2022/05/20 05:18:11;;;;;;;5.88;3.90;;;19.40;99.90;;;;;;5068976;28;20508;-81
2022/05/20 05:20:48;;;;;;;6.47;3.63;;;19.50;99.90;;;;;;5063412;28;20033;-81
2022/05/20 05:23:14;;;;;;;7.60;4.45;;;19.60;99.90;;;;;;5079989;28;20027;-81
2022/05/20 05:25:41;;;;;;;6.18;3.47;;;19.60;99.90;;;;;;5064171;28;20029;-80
2022/05/20 05:28:07;;;;;;;5.75;3.75;;;19.70;99.90;;;;;;5076986;28;20032;-83
2022/05/20 05:30:33;;;;;;;4.78;3.67;;;19.70;99.90;;;;;;5068212;28;20536;-83
2022/05/20 05:32:59;;;;;;;4.90;3.45;;;19.70;99.90;;;;;;5061478;28;20032;-83
2022/05/20 05:35:27;;;;;;;4.63;3.65;;;19.80;99.80;;;;;;5065790;28;20036;-81
2022/05/20 05:37:54;;;;;;;5.10;3.58;;;19.80;99.90;;;;;;5070029;28;20040;-82
2022/05/20 05:40:21;;;;;;;5.55;3.30;;;19.90;99.80;;;;;;5071535;28;20032;-80
2022/05/20 05:42:48;;;;;;;5.35;3.63;;;20.00;99.60;;;;;;5070629;28;20044;-82
2022/05/20 05:45:17;;;;;;;7.50;3.60;;;20.10;99.50;;;;;;5055296;28;20040;-81
2022/05/20 05:47:47;;;;;;;4.72;2.95;;;20.10;99.40;;;;;;5057723;28;20632;-84
2022/05/20 05:50:13;;;;;;;8.93;4.03;;;20.20;99.20;;;;;;5068000;28;20403;-79
2022/05/20 05:52:38;;;;;;;5.38;3.35;;;20.30;98.90;;;;;;5078675;28;20035;-78
2022/05/20 05:55:04;;;;;;;5.70;3.35;;;20.50;98.60;;;;;;5065278;28;20021;-81
2022/05/20 05:57:31;;;;;;;4.18;3.30;;;20.50;98.40;;;;;;5061857;28;20418;-82
2022/05/20 05:59:56;;;;;;;4.72;3.40;;;20.50;98.70;;;;;;5064446;28;20491;-84
2022/05/20 06:02:22;;;;;;;5.43;3.60;;;20.50;98.50;;;;;;5063282;28;20078;-81
2022/05/20 06:04:49;;;;;;;3.92;3.22;;;20.50;98.40;;;;;;5069868;28;20027;-82
2022/05/20 06:07:15;;;;;;;5.72;4.10;;;20.50;98.70;;;;;;5068877;28;20112;-81
2022/05/20 06:09:41;;;;;;;6.85;4.18;;;20.60;98.40;;;;;;5059319;28;20107;-83
2022/05/20 06:12:07;;;;;;;4.72;3.97;;;20.60;98.40;;;;;;5065638;28;20029;-82
2022/05/20 06:14:33;;;;;;;4.72;3.47;;;20.70;98.40;;;;;;5069843;28;20498;-81
2022/05/20 06:16:59;;;;;;;6.07;3.92;;;20.80;98.00;;;;;;5068159;28;20032;-82
2022/05/20 06:19:25;;;;;;;6.40;3.28;;;20.90;98.30;;;;;;5068524;28;20065;-81
2022/05/20 06:21:51;;;;;;;5.13;3.65;;;21.00;98.40;;;;;;5076627;28;20513;-81
2022/05/20 06:24:17;;;;;;;4.70;3.45;;;21.00;97.80;;;;;;5069378;28;20031;-80
2022/05/20 06:26:43;;;;;;;6.65;4.22;;;21.10;97.90;;;;;;5064635;28;20028;-82
2022/05/20 06:29:09;;;;;;;4.68;3.95;;;21.20;97.60;;;;;;5052086;28;20043;-81
2022/05/20 06:31:34;;;;;;;6.40;4.10;;;21.30;96.90;;;;;;5061878;28;20035;-82
2022/05/20 06:34:00;;;;;;;3.70;3.30;;;21.40;97.00;;;;;;5070638;28;20036;-82
2022/05/20 06:41:55;;;;;;;4.70;3.58;;;21.60;96.50;;;;;;5070090;28;20090;-82
2022/05/20 06:44:22;;;;;;;4.60;3.20;;;21.70;96.80;;;;;;5070280;28;20037;-81
2022/05/20 06:46:47;;;;;;;8.02;3.78;;;21.70;96.70;;;;;;5070146;28;20035;-82
2022/05/20 06:49:14;;;;;;;5.00;3.67;;;21.80;96.90;;;;;;5071082;28;20024;-82
2022/05/20 06:51:40;;;;;;;6.13;3.42;;;21.90;96.80;;;;;;5069966;28;20093;-82
2022/05/20 06:54:08;;;;;;;5.22;3.47;;;21.90;95.80;;;;;;5070791;28;20033;-81
2022/05/20 06:56:34;;;;;;;12.68;3.55;;;22.00;96.10;;;;;;5069053;28;20536;-84
2022/05/20 06:59:01;;;;;;;4.60;3.83;;;22.10;96.70;;;;;;5068782;28;20514;-83
2022/05/20 07:01:28;;;;;;;4.88;3.28;;;22.20;96.00;;;;;;5066629;28;20040;-86
2022/05/20 07:03:53;;;;;;;5.22;3.33;;;22.20;95.60;;;;;;5068912;28;20052;-84
2022/05/20 07:06:20;;;;;;;4.63;3.13;;;22.30;95.80;;;;;;5067828;28;20716;-85
2022/05/20 07:08:48;;;;;;;3.90;2.75;;;22.40;95.30;;;;;;5069388;28;20471;-82
2022/05/20 07:11:15;;;;;;;8.75;3.25;;;22.40;95.20;;;;;;5071962;28;20092;-83
2022/05/20 07:13:41;;;;;;;6.22;3.40;;;22.50;95.00;;;;;;5059966;28;20060;-79
2022/05/20 07:16:07;;;;;;;4.45;3.03;;;22.50;95.10;;;;;;5050794;28;20033;-79
2022/05/20 07:18:34;;;;;;;4.10;3.13;;;22.60;95.00;;;;;;5051044;28;20040;-81
2022/05/20 07:21:01;;;;;;;7.38;3.70;;;22.60;95.10;;;;;;5058070;28;20037;-81
2022/05/20 07:23:29;;;;;;;4.20;2.70;;;22.70;94.40;;;;;;5056770;28;20452;-80
2022/05/20 07:25:55;;;;;;;3.47;3.17;;;22.80;94.40;;;;;;5064199;28;20025;-82
2022/05/20 07:28:20;;;;;;;4.43;3.15;;;22.90;95.10;;;;;;5072869;28;20031;-80
2022/05/20 07:30:46;;;;;;;5.55;2.75;;;22.90;95.10;;;;;;5072015;28;20036;-79
2022/05/20 07:33:11;;;;;;;5.45;3.33;;;23.10;93.90;;;;;;5057415;28;20086;-81
2022/05/20 07:35:38;;;;;;;3.50;2.83;;;23.00;94.10;;;;;;5071730;28;20036;-83
2022/05/20 07:38:05;;;;;;;3.92;3.13;;;23.10;94.70;;;;;;5073932;28;20020;-82
2022/05/20 07:40:30;;;;;;;3.88;3.35;;;23.10;93.70;;;;;;5070869;28;20080;-80
2022/05/20 07:42:56;;;;;;;4.38;2.85;;;23.20;93.80;;;;;;5071226;28;20116;-84
2022/05/20 07:45:21;;;;;;;5.13;3.13;;;23.20;94.10;;;;;;5068573;28;20749;-82
2022/05/20 07:47:47;;;;;;;4.28;3.25;;;23.30;94.40;;;;;;5068134;28;20074;-84
2022/05/20 07:50:13;;;;;;;4.10;3.20;;;23.50;94.60;;;;;;5070056;28;20071;-85
2022/05/20 07:55:32;;;;;;;8.32;3.58;;;23.70;93.00;;;;;;5069306;28;20551;-80
2022/05/20 07:57:59;;;;;;;5.45;3.38;;;23.80;92.90;;;;;;5067567;28;20025;-81
2022/05/20 08:00:25;;;;;;;4.97;3.20;;;23.80;92.70;;;;;;5070244;28;20043;-81
2022/05/20 08:02:55;;;;;;;4.97;3.75;;;23.90;92.70;;;;;;5062171;28;20493;-82
2022/05/20 08:05:22;;;;;;;5.70;3.63;;;23.90;92.40;;;;;;5058957;28;20028;-81
2022/05/20 08:07:48;;;;;;;10.95;4.60;;;24.00;92.40;;;;;;5072673;28;20111;-80
2022/05/20 08:10:18;;;;;;;7.50;4.53;;;24.00;92.20;;;;;;5069346;28;20028;-78
2022/05/20 08:12:44;;;;;;;8.10;5.25;;;24.00;92.20;;;;;;5071143;28;20028;-82
2022/05/20 08:15:10;;;;;;;6.90;4.47;;;24.00;91.90;;;;;;5070424;28;20390;-84
2022/05/20 08:17:40;;;;;;;4.30;3.70;;;24.10;92.40;;;;;;5069703;28;20028;-81
2022/05/20 08:20:09;;;;;;;5.35;4.10;;;24.00;92.60;;;;;;5068665;28;20035;-79
2022/05/20 08:22:38;;;;;;;4.53;3.67;;;24.10;91.90;;;;;;5067900;28;20028;-80
2022/05/20 08:25:04;;;;;;;9.13;4.13;;;24.10;92.40;;;;;;5068221;28;20115;-79
2022/05/20 08:27:31;;;;;;;8.23;4.93;;;24.10;92.20;;;;;;5068597;28;20475;-78
2022/05/20 08:29:57;;;;;;;5.88;3.95;;;24.20;92.60;;;;;;5068484;28;20024;-83
2022/05/20 08:32:23;;;;;;;5.40;4.72;;;24.30;91.80;;;;;;5068695;28;20417;-83
2022/05/20 08:34:49;;;;;;;7.50;5.13;;;24.40;91.30;;;;;;5067154;28;20032;-81
2022/05/20 08:37:16;;;;;;;5.10;4.55;;;24.40;92.20;;;;;;5069133;28;20551;-81
2022/05/20 08:39:41;;;;;;;7.10;5.05;;;24.40;91.40;;;;;;5069256;28;20033;-79
2022/05/20 08:42:17;;;;;;;6.05;4.88;;;24.50;91.60;;;;;;5067930;28;20023;-80
2022/05/20 08:44:43;;;;;;;5.10;4.55;;;24.40;91.80;;;;;;5066282;28;20043;-81
2022/05/20 08:47:29;;;;;;;5.88;4.90;;;24.50;91.80;;;;;;5066860;28;20032;-81
2022/05/20 08:49:58;;;;;;;10.77;6.25;;;24.50;92.20;;;;;;5063040;28;20037;-82
2022/05/20 08:52:25;;;;;;;6.20;5.57;;;24.70;91.50;;;;;;5051029;28;20170;-82
2022/05/20 08:54:51;;;;;;;6.43;5.53;;;24.70;91.20;;;;;;5068480;28;20028;-81
2022/05/20 08:57:27;;;;;;;5.65;4.90;;;24.80;91.10;;;;;;5066371;28;20036;-84
2022/05/20 08:59:53;;;;;;;8.80;6.38;;;24.70;91.30;;;;;;5065548;28;20041;-81
2022/05/20 09:02:20;;;;;;;10.13;6.05;;;24.70;91.20;;;;;;5066642;28;20032;-81
2022/05/20 09:04:45;;;;;;;5.88;5.10;;;24.70;91.30;;;;;;5068772;28;20024;-85
2022/05/20 09:07:14;;;;;;;8.73;6.68;;;24.60;91.70;;;;;;5066155;28;20028;-84
2022/05/20 09:09:52;;;;;;;8.18;6.60;;;24.50;91.80;;;;;;5067694;28;20058;-81
2022/05/20 09:12:27;;;;;;;8.68;6.63;;;24.50;92.00;;;;;;5066510;28;20055;-80
2022/05/20 09:18:04;;;;;;;8.68;7.15;;;24.50;92.00;;;;;;5062470;28;20495;-82
2022/05/20 09:20:30;;;;;;;12.05;7.85;;;24.50;91.60;;;;;;5068186;28;20038;-80
2022/05/20 09:23:01;;;;;;;8.20;6.50;;;24.60;91.00;;;;;;5067191;28;20096;-82
2022/05/20 09:25:30;;;;;;;8.68;7.70;;;24.70;91.30;;;;;;5067200;28;20048;-84
2022/05/20 09:28:31;;;;;;;8.13;7.30;;;24.70;91.40;;;;;;5066960;28;20021;-83
2022/05/20 09:31:32;;;;;;;9.07;7.43;;;24.70;90.70;;;;;;5066690;28;20029;-87
2022/05/20 09:34:26;;;;;;;8.93;7.00;;;24.70;90.60;;;;;;5062436;28;20103;-80
2022/05/20 09:37:03;;;;;;;9.85;8.52;;;24.60;90.70;;;;;;5056137;28;20032;-82
2022/05/20 09:39:35;;;;;;;8.68;7.72;;;24.60;90.40;;;;;;5071673;28;20032;-83
2022/05/20 09:42:09;;;;;;;10.35;8.63;;;24.70;90.60;;;;;;5068999;28;20021;-82
2022/05/20 09:44:44;;;;;;;9.85;8.20;;;24.70;90.40;;;;;;5071733;28;20036;-86
2022/05/20 09:47:30;;;;;;;9.60;8.60;;;24.70;90.90;;;;;;5064739;28;20028;-82
2022/05/20 09:50:21;;;;;;;11.43;8.77;;;24.80;91.70;;;;;;5058062;28;20504;-82
2022/05/20 09:52:51;;;;;;;9.68;8.10;;;24.90;91.00;;;;;;5070265;28;20035;-80
2022/05/20 09:55:28;;;;;;;10.50;8.02;;;25.10;90.40;;;;;;5070840;28;20062;-83
2022/05/20 09:57:56;;;;;;;9.32;7.88;;;25.30;90.90;;;;;;5070487;28;20056;-81
2022/05/20 10:00:31;;;;;;;8.75;7.50;;;25.50;90.60;;;;;;5052828;28;20041;-82
2022/05/20 10:02:59;;;;;;;10.75;8.25;;;25.70;90.60;;;;;;5051188;28;20387;-81
2022/05/20 10:06:06;;;;;;;9.35;8.38;;;25.90;90.20;;;;;;5052141;28;20024;-84
2022/05/20 10:08:55;;;;;;;9.32;8.38;;;26.10;90.60;;;;;;4990298;28;20052;-82
2022/05/20 10:11:35;;;;;;;11.55;7.93;;;26.30;88.20;;;;;;4991092;28;20076;-82
2022/05/20 10:14:14;;;;;;;10.23;7.57;;;26.30;86.90;;;;;;5033966;28;20040;-82
2022/05/20 10:16:57;;;;;;;10.05;7.18;;;26.30;86.70;;;;;;5057303;28;20025;-82
2022/05/20 10:19:44;;;;;;;7.97;7.18;;;26.20;86.60;;;;;;5070613;28;20509;-81
2022/05/20 10:22:10;;;;;;;10.45;7.97;;;26.30;86.60;;;;;;5065372;28;20040;-82
2022/05/20 10:25:01;;;;;;;9.68;8.02;;;26.30;88.10;;;;;;5064050;28;20108;-82
2022/05/20 10:27:30;;;;;;;9.93;6.78;;;26.40;88.50;;;;;;5059357;28;20228;-85
2022/05/20 10:33:17;;;;;;;7.40;6.70;;;26.50;88.10;;;;;;5064909;28;20065;-85
2022/05/20 10:35:58;;;;;;;7.97;7.18;;;26.50;89.00;;;;;;5069010;28;20058;-83
2022/05/20 10:38:50;;;;;;;7.05;5.47;;;26.50;88.40;;;;;;5068135;28;20036;-82
2022/05/20 10:41:19;;;;;;;7.43;5.80;;;26.70;88.60;;;;;;5066963;28;20036;-83
2022/05/20 10:49:59;;;;;;;10.27;5.10;;;27.10;86.70;;;;;;5067711;28;20043;-82
2022/05/20 10:53:04;;;;;;;8.00;4.45;;;27.30;84.50;;;;;;5063101;28;20131;-83
2022/05/20 10:55:52;;;;;;;6.95;4.68;;;27.50;83.00;;;;;;5056357;28;20044;-82
2022/05/20 10:58:41;;;;;;;5.13;4.63;;;27.70;81.50;;;;;;5064296;28;20052;-81
2022/05/20 11:01:31;;;;;;;6.88;4.47;;;27.80;86.40;;;;;;5067091;28;20033;-80
2022/05/20 11:04:03;;;;;;;8.45;4.53;;;28.00;83.90;;;;;;5065047;28;20115;-84
2022/05/20 11:06:51;;;;;;;4.90;4.43;;;28.10;81.60;;;;;;5060542;28;20033;-80
2022/05/20 11:09:38;;;;;;;6.15;4.20;;;28.00;79.70;;;;;;5055825;28;20033;-85
2022/05/20 11:12:05;;;;;;;6.63;5.28;;;28.10;80.40;;;;;;5064772;28;20121;-81
2022/05/20 11:14:44;;;;;;;7.13;4.93;;;28.00;82.50;;;;;;5062804;28;20365;-80
2022/05/20 11:17:32;;;;;;;5.43;4.70;;;28.10;81.60;;;;;;5067876;28;20104;-81
2022/05/20 11:20:18;;;;;;;6.50;4.50;;;28.10;80.30;;;;;;5067118;28;20033;-81
2022/05/20 11:23:08;;;;;;;11.05;5.32;;;28.00;81.80;;;;;;5068532;28;20030;-81
2022/05/20 11:25:35;;;;;;;6.78;5.60;;;27.90;81.00;;;;;;5064626;28;20044;-83
2022/05/20 11:28:26;;;;;;;6.47;4.65;;;27.80;81.10;;;;;;5063531;28;20028;-81
2022/05/20 11:31:15;;;;;;;7.50;4.57;;;27.70;81.90;;;;;;5061261;28;20033;-84
2022/05/20 11:34:05;;;;;;;4.95;4.40;;;27.50;84.60;;;;;;5067411;28;20096;-80
2022/05/20 11:37:05;;;;;;;4.15;3.75;;;27.50;82.00;;;;;;5067798;28;20054;-81
2022/05/20 11:39:46;;;;;;;6.88;3.70;;;27.50;81.90;;;;;;5050956;28;20099;-81
2022/05/20 11:42:30;;;;;;;6.00;3.55;;;27.40;81.20;;;;;;5068177;28;20104;-84
2022/05/20 11:45:10;;;;;;;5.40;3.17;;;27.50;80.90;;;;;;5071201;28;20059;-83
2022/05/20 11:48:01;;;;;;;4.60;3.30;;;27.70;83.30;;;;;;5065940;28;20028;-81
2022/05/20 11:50:58;;;;;;;2.63;2.42;;;28.00;80.80;;;;;;5065487;28;20492;-85
2022/05/20 11:53:42;;;;;;;3.60;3.30;;;28.30;79.70;;;;;;5067357;28;20033;-80
2022/05/20 11:56:21;;;;;;;3.58;2.65;;;28.60;78.10;;;;;;5067164;28;20027;-80
2022/05/20 11:59:01;;;;;;;7.03;3.05;;;28.70;77.60;;;;;;5057594;28;20052;-84
2022/05/20 12:01:27;;;;;;;5.63;3.40;;;28.90;77.30;;;;;;5066109;28;20470;-80
2022/05/20 12:04:06;;;;;;;3.10;2.72;;;28.90;75.30;;;;;;5056267;28;20035;-78
2022/05/20 12:06:34;;;;;;;3.75;2.97;;;28.90;77.20;;;;;;5067361;28;20032;-82
2022/05/20 12:09:21;;;;;;;5.00;3.33;;;29.10;76.50;;;;;;5061064;28;20119;-82
2022/05/20 12:12:09;;;;;;;3.58;3.05;;;29.30;77.80;;;;;;5060299;28;20625;-81
2022/05/20 12:15:04;;;;;;;3.65;3.22;;;29.60;77.10;;;;;;5057043;28;20078;-82
2022/05/20 12:17:40;;;;;;;4.18;3.78;;;29.80;75.40;;;;;;5030627;28;20043;-83
2022/05/20 12:26:17;;;;;;;4.40;3.38;;;29.80;76.10;;;;;;5061829;28;20115;-83
2022/05/20 12:28:43;;;;;;;5.05;3.72;;;29.60;79.80;;;;;;5057203;28;20032;-86
2022/05/20 12:31:13;;;;;;;4.88;3.70;;;29.60;75.50;;;;;;5061042;28;20040;-84
2022/05/20 12:33:54;;;;;;;5.40;3.65;;;29.60;75.40;;;;;;5059660;28;20032;-82
2022/05/20 12:36:28;;;;;;;3.78;3.25;;;29.60;75.10;;;;;;5065074;28;20024;-82
2022/05/20 12:39:09;;;;;;;8.07;3.78;;;29.60;75.70;;;;;;5069788;28;20024;-81
2022/05/20 12:41:49;;;;;;;4.35;3.58;;;29.60;76.10;;;;;;5057415;28;20056;-83
2022/05/20 12:44:20;;;;;;;3.90;3.50;;;29.60;74.80;;;;;;5062645;28;20071;-83
2022/05/20 12:47:04;;;;;;;5.33;3.60;;;29.60;74.20;;;;;;5066337;28;20490;-83
2022/05/20 12:49:46;;;;;;;4.00;3.50;;;29.60;74.40;;;;;;5056093;28;20029;-83
2022/05/20 12:52:14;;;;;;;5.35;3.15;;;29.60;76.50;;;;;;5052115;28;20033;-81
2022/05/20 12:54:44;;;;;;;3.40;3.10;;;29.70;78.00;;;;;;5061518;28;20020;-80
2022/05/20 12:57:20;;;;;;;4.13;3.42;;;29.90;75.20;;;;;;5059724;28;20028;-84
2022/05/20 13:00:01;;;;;;;3.90;2.85;;;30.10;75.40;;;;;;5058445;28;20033;-82
2022/05/20 13:02:34;;;;;;;4.17;3.77;;;30.10;75.10;;;;;;5059964;28;20043;-81
2022/05/20 13:05:05;;;;;;;4.75;3.25;;;30.20;72.50;;;;;;5069902;28;20274;-87
2022/05/20 13:07:36;;;;;;;5.18;3.83;;;30.00;72.80;;;;;;5069845;28;20044;-79
2022/05/20 13:10:22;;;;;;;3.83;3.20;;;29.80;73.50;;;;;;5061392;28;20037;-81
2022/05/20 13:12:53;;;;;;;7.20;3.63;;;29.60;73.40;;;;;;5068074;28;20028;-81
2022/05/20 13:15:20;;;;;;;3.47;3.10;;;29.50;74.10;;;;;;5060165;28;20437;-82
2022/05/20 13:18:21;;;;;;;4.22;2.83;;;29.20;75.90;;;;;;5072702;28;20377;-81
2022/05/20 13:20:56;;;;;;;2.92;2.65;;;29.10;76.20;;;;;;5056265;28;20048;-80
2022/05/20 13:23:34;;;;;;;97.22;23.85;;;29.00;76.30;;;;;;5072682;28;20031;-80
2022/05/20 13:26:00;;;;;;;15.40;6.40;;;29.00;78.50;;;;;;5063377;28;20023;-81
2022/05/20 13:28:31;;;;;;;6.13;3.38;;;28.90;78.40;;;;;;5065011;28;20028;-83
2022/05/20 13:31:05;;;;;;;3.25;2.60;;;28.90;77.40;;;;;;5067668;28;20028;-82
2022/05/20 13:33:32;;;;;;;3.65;2.67;;;29.00;75.50;;;;;;5070169;28;20040;-80
2022/05/20 13:36:00;;;;;;;2.63;2.42;;;29.00;76.00;;;;;;5070386;28;20217;-82
2022/05/20 13:38:30;;;;;;;3.55;2.28;;;29.00;75.70;;;;;;5071644;28;20054;-83
2022/05/20 13:40:56;;;;;;;4.85;2.22;;;29.00;74.70;;;;;;5068631;28;20028;-83
2022/05/20 13:43:28;;;;;;;4.00;2.88;;;29.10;75.00;;;;;;5072193;28;20032;-81
2022/05/20 13:51:35;;;;;;;5.57;3.63;;;29.70;78.30;;;;;;5068153;28;20074;-82
2022/05/20 13:54:09;;;;;;;6.03;4.03;;;29.80;76.40;;;;;;5069281;28;20020;-82